Time;durP1;ratioP1;P1;durP2;ratioP2;P2;SDS_P1;SDS_P2;PMS_P1;PMS_P2;Temp;Humidity;BMP_temperature;BMP_pressure;BME280_temperature;BME280_humidity;BME280_pressure;Samples;Min_cycle;Max_cycle;Signal;HPM_P1;HPM_P2
2024/01/26 00:02:15;;;;;;;2.90;2.67;;;;;;;10.63;97.62;96712.72;4933944;29;20206;-85
2024/01/26 00:04:41;;;;;;;3.40;2.47;;;;;;;10.61;97.69;96715.44;4936448;29;20206;-85
2024/01/26 00:07:09;;;;;;;2.70;2.50;;;;;;;10.62;97.50;96706.75;4936306;29;20232;-85
2024/01/26 00:09:37;;;;;;;2.83;2.63;;;;;;;10.62;97.71;96698.22;4936805;29;20225;-84
2024/01/26 00:12:03;;;;;;;2.63;2.43;;;;;;;10.60;97.88;96708.66;4923396;29;20614;-84
2024/01/26 00:14:30;;;;;;;2.77;2.57;;;;;;;10.59;98.03;96709.63;4916886;29;20214;-85
2024/01/26 00:16:56;;;;;;;2.93;2.50;;;;;;;10.58;98.18;96718.31;4924225;29;20214;-85
2024/01/26 00:19:23;;;;;;;2.90;2.70;;;;;;;10.55;98.77;96716.06;4935959;29;20197;-84
2024/01/26 00:21:49;;;;;;;3.37;2.67;;;;;;;10.55;99.04;96722.97;4935539;29;20206;-86
2024/01/26 00:24:16;;;;;;;3.23;2.93;;;;;;;10.54;99.37;96723.94;4932842;29;20198;-84
2024/01/26 00:26:43;;;;;;;2.77;2.57;;;;;;;10.55;99.47;96728.13;4937352;29;20225;-84
2024/01/26 00:29:10;;;;;;;3.17;2.87;;;;;;;10.57;99.52;96726.22;4937105;29;20205;-86
2024/01/26 00:31:36;;;;;;;2.70;2.50;;;;;;;10.57;99.54;96726.22;4937551;29;20201;-84
2024/01/26 00:34:03;;;;;;;3.20;2.90;;;;;;;10.58;99.52;96725.25;4934741;29;20653;-84
2024/01/26 00:36:29;;;;;;;2.90;2.70;;;;;;;10.59;99.35;96719.13;4935193;29;20224;-84
2024/01/26 00:38:55;;;;;;;3.00;2.70;;;;;;;10.57;99.87;96724.44;4934402;29;20228;-84
2024/01/26 00:41:22;;;;;;;3.13;2.83;;;;;;;10.53;100.00;96725.69;4935374;29;20578;-85
2024/01/26 00:43:50;;;;;;;3.10;2.90;;;;;;;10.56;99.98;96722.81;4934981;29;20720;-84
2024/01/26 00:46:16;;;;;;;2.63;2.43;;;;;;;10.57;99.89;96721.06;4935495;29;20233;-85
2024/01/26 00:48:42;;;;;;;2.90;2.70;;;;;;;10.56;100.00;96720.25;4935653;29;20209;-84
2024/01/26 00:51:09;;;;;;;3.30;3.00;;;;;;;10.59;99.65;96722.50;4934289;29;20205;-84
2024/01/26 00:53:36;;;;;;;3.10;2.90;;;;;;;10.57;100.00;96729.59;4935737;29;20209;-85
2024/01/26 00:56:02;;;;;;;3.47;3.17;;;;;;;10.58;100.00;96743.28;4928355;29;20221;-85
2024/01/26 00:58:28;;;;;;;3.00;2.80;;;;;;;10.59;100.00;96737.94;4935310;29;20205;-85
2024/01/26 01:00:56;;;;;;;3.30;3.00;;;;;;;10.54;100.00;96740.19;4935014;29;20210;-85
2024/01/26 01:03:23;;;;;;;3.27;2.97;;;;;;;10.53;100.00;96754.00;4935594;29;20229;-84
2024/01/26 01:05:50;;;;;;;3.27;2.97;;;;;;;10.58;100.00;96746.63;4934180;29;20251;-84
2024/01/26 01:08:17;;;;;;;3.40;3.10;;;;;;;10.57;100.00;96745.03;4933928;29;20210;-85
2024/01/26 01:10:43;;;;;;;3.53;3.23;;;;;;;10.59;100.00;96740.53;4933140;29;20460;-85
2024/01/26 01:13:10;;;;;;;3.53;3.20;;;;;;;10.56;100.00;96733.13;4920315;29;20831;-85
2024/01/26 01:15:37;;;;;;;3.70;3.40;;;;;;;10.55;100.00;96739.22;4922210;29;20226;-85
2024/01/26 01:18:05;;;;;;;3.47;3.17;;;;;;;10.53;100.00;96738.56;4936381;29;20672;-84
2024/01/26 01:20:31;;;;;;;3.50;3.20;;;;;;;10.53;99.82;96738.56;4937785;29;20688;-86
2024/01/26 01:22:58;;;;;;;3.20;3.00;;;;;;;10.52;99.86;96736.94;4939153;29;20208;-84
2024/01/26 01:25:25;;;;;;;3.00;2.80;;;;;;;10.55;99.56;96725.53;4941050;29;20228;-85
2024/01/26 01:27:52;;;;;;;2.80;2.60;;;;;;;10.56;99.09;96722.81;4940660;29;20647;-85
2024/01/26 01:30:18;;;;;;;3.13;2.93;;;;;;;10.58;99.09;96726.03;4941385;29;20206;-86
2024/01/26 01:32:45;;;;;;;3.30;3.00;;;;;;;10.57;98.94;96714.13;4941041;29;20198;-84
2024/01/26 01:35:13;;;;;;;2.83;2.63;;;;;;;10.59;98.74;96714.78;4941284;29;20205;-84
2024/01/26 01:37:40;;;;;;;3.00;2.70;;;;;;;10.57;98.72;96721.06;4939599;29;20205;-85
2024/01/26 01:40:08;;;;;;;3.57;2.90;;;;;;;10.56;98.91;96719.44;4939528;29;20585;-85
2024/01/26 01:42:34;;;;;;;3.07;2.77;;;;;;;10.57;98.92;96718.47;4941084;29;20201;-84
2024/01/26 01:45:01;;;;;;;2.63;2.43;;;;;;;10.57;98.74;96716.72;4940443;29;20213;-85
2024/01/26 01:47:28;;;;;;;3.43;2.80;;;;;;;10.57;98.65;96719.28;4940881;29;20221;-84
2024/01/26 01:49:55;;;;;;;3.20;2.90;;;;;;;10.55;99.00;96717.81;4941359;29;20205;-85
2024/01/26 01:52:26;;;;;;;3.00;2.70;;;;;;;10.51;99.37;96722.44;4939775;29;20576;-85
2024/01/26 01:54:57;;;;;;;2.90;2.70;;;;;;;10.51;99.10;96719.88;4929337;29;20260;-83
2024/01/26 01:57:25;;;;;;;2.77;2.57;;;;;;;10.51;99.31;96725.03;4940265;29;20217;-84
2024/01/26 01:59:52;;;;;;;2.67;2.47;;;;;;;10.50;99.60;96738.03;4940817;29;20568;-85
2024/01/26 02:02:23;;;;;;;2.53;2.33;;;;;;;10.47;100.00;96740.91;4940754;29;20212;-84
2024/01/26 02:04:50;;;;;;;2.90;2.70;;;;;;;10.49;99.62;96744.97;4940893;29;20204;-85
2024/01/26 02:07:16;;;;;;;5.17;3.83;;;;;;;10.48;99.86;96740.75;4940847;29;20506;-86
2024/01/26 02:09:44;;;;;;;2.90;2.70;;;;;;;10.47;100.00;96738.34;4940759;29;20591;-84
2024/01/26 02:12:11;;;;;;;2.80;2.60;;;;;;;10.46;100.00;96747.00;4934894;29;20683;-85
2024/01/26 02:14:37;;;;;;;2.93;2.73;;;;;;;10.40;100.00;96743.25;4932963;29;20198;-84
2024/01/26 02:17:04;;;;;;;3.10;2.83;;;;;;;10.41;100.00;96750.03;4940451;29;20217;-83
2024/01/26 02:19:33;;;;;;;3.00;2.70;;;;;;;10.36;100.00;96759.97;4940094;29;20202;-84
2024/01/26 02:22:00;;;;;;;2.90;2.70;;;;;;;10.30;100.00;96776.81;4940369;29;20209;-84
2024/01/26 02:24:27;;;;;;;3.07;2.87;;;;;;;10.25;100.00;96781.56;4937285;29;20224;-84
2024/01/26 02:26:54;;;;;;;3.30;3.00;;;;;;;10.22;100.00;96787.00;4935344;29;20225;-85
2024/01/26 02:29:20;;;;;;;3.47;3.17;;;;;;;10.22;100.00;96796.47;4937327;29;20216;-85
2024/01/26 02:31:47;;;;;;;3.33;3.03;;;;;;;10.24;100.00;96792.00;4937793;29;20213;-84
2024/01/26 02:34:13;;;;;;;3.03;2.83;;;;;;;10.26;100.00;96784.94;4937093;29;20242;-85
2024/01/26 02:36:40;;;;;;;3.40;3.10;;;;;;;10.30;100.00;96787.09;4937660;29;20272;-84
2024/01/26 02:39:06;;;;;;;3.47;3.17;;;;;;;10.32;100.00;96792.91;4936448;29;20210;-85
2024/01/26 02:41:35;;;;;;;3.73;3.27;;;;;;;10.31;100.00;96791.28;4938029;29;20201;-84
2024/01/26 02:44:02;;;;;;;3.70;3.40;;;;;;;10.28;100.00;96790.75;4935987;29;20206;-85
2024/01/26 02:46:29;;;;;;;3.60;3.30;;;;;;;10.26;100.00;96796.06;4937537;29;20225;-85
2024/01/26 02:48:55;;;;;;;3.67;3.37;;;;;;;10.24;100.00;96808.25;4936861;29;20212;-85
2024/01/26 02:51:22;;;;;;;4.57;3.80;;;;;;;10.18;100.00;96802.88;4936768;29;20201;-84
2024/01/26 02:53:48;;;;;;;4.27;3.87;;;;;;;10.18;100.00;96810.59;4937506;29;20210;-85
2024/01/26 02:56:15;;;;;;;3.93;3.63;;;;;;;10.24;100.00;96799.72;4937703;29;20226;-85
2024/01/26 02:58:43;;;;;;;4.83;4.40;;;;;;;10.19;100.00;96804.50;4935181;29;20214;-85
2024/01/26 03:01:09;;;;;;;4.60;4.20;;;;;;;10.23;100.00;96805.81;4937227;29;20206;-85
2024/01/26 03:03:36;;;;;;;5.33;4.83;;;;;;;10.25;100.00;96791.06;4937187;29;20680;-84
2024/01/26 03:06:02;;;;;;;4.80;4.40;;;;;;;10.28;100.00;96808.78;4937192;29;20230;-84
2024/01/26 03:08:28;;;;;;;4.90;4.50;;;;;;;10.31;100.00;96798.19;4937302;29;20232;-84
2024/01/26 03:10:55;;;;;;;5.23;4.33;;;;;;;10.34;100.00;96803.06;4929319;29;20209;-84
2024/01/26 03:13:21;;;;;;;4.43;4.03;;;;;;;10.35;100.00;96802.13;4937752;29;20212;-85
2024/01/26 03:15:49;;;;;;;4.37;3.97;;;;;;;10.35;100.00;96802.13;4935124;29;20229;-84
2024/01/26 03:18:16;;;;;;;5.10;4.70;;;;;;;10.38;100.00;96801.84;4937846;29;20292;-84
2024/01/26 03:20:43;;;;;;;4.47;4.07;;;;;;;10.36;100.00;96801.97;4936912;29;20220;-85
2024/01/26 03:23:09;;;;;;;4.67;4.27;;;;;;;10.40;100.00;96805.03;4937062;29;20213;-84
2024/01/26 03:25:36;;;;;;;4.53;4.13;;;;;;;10.36;100.00;96811.47;4935805;29;20229;-84
2024/01/26 03:28:02;;;;;;;4.47;4.07;;;;;;;10.28;100.00;96827.63;4936369;29;20217;-85
2024/01/26 03:30:28;;;;;;;4.50;3.93;;;;;;;10.22;100.00;96833.31;4936643;29;20209;-84
2024/01/26 03:32:56;;;;;;;4.57;4.17;;;;;;;10.24;100.00;96848.63;4934722;29;20237;-84
2024/01/26 03:35:23;;;;;;;4.13;3.83;;;;;;;10.19;100.00;96848.28;4936513;29;20237;-84
2024/01/26 03:37:49;;;;;;;4.70;4.30;;;;;;;10.24;100.00;96849.44;4936805;29;20205;-84
2024/01/26 03:40:16;;;;;;;4.97;4.40;;;;;;;10.19;100.00;96856.81;4939519;29;20216;-84
2024/01/26 03:42:43;;;;;;;4.90;4.50;;;;;;;10.21;100.00;96852.28;4943450;29;20491;-84
2024/01/26 03:45:10;;;;;;;4.63;4.23;;;;;;;10.13;100.00;96861.66;4944342;29;20216;-85
2024/01/26 03:47:35;;;;;;;4.77;4.37;;;;;;;10.07;100.00;96864.81;4941664;29;20230;-85
2024/01/26 03:50:05;;;;;;;4.60;4.20;;;;;;;10.14;100.00;96860.72;4942758;29;20231;-84
2024/01/26 03:52:31;;;;;;;5.13;4.73;;;;;;;10.16;100.00;96862.19;4942727;29;20205;-84
2024/01/26 03:54:58;;;;;;;4.60;4.20;;;;;;;10.09;100.00;96863.72;4943080;29;20226;-85
2024/01/26 03:57:24;;;;;;;4.53;4.13;;;;;;;10.00;100.00;96882.59;4942276;29;20253;-85
2024/01/26 03:59:51;;;;;;;4.70;4.20;;;;;;;9.98;100.00;96884.47;4943006;29;20298;-84
2024/01/26 04:02:17;;;;;;;4.70;4.30;;;;;;;10.04;100.00;96881.31;4941739;29;20679;-85
2024/01/26 04:04:44;;;;;;;4.70;4.30;;;;;;;10.06;100.00;96882.00;4939251;29;20571;-84
2024/01/26 04:07:12;;;;;;;4.63;4.23;;;;;;;10.08;100.00;96879.28;4939891;29;20613;-85
2024/01/26 04:09:38;;;;;;;4.43;4.03;;;;;;;10.18;100.00;96872.34;4940039;29;20231;-85
2024/01/26 04:12:06;;;;;;;4.00;3.70;;;;;;;10.17;100.00;96855.28;4926989;29;20217;-84
2024/01/26 04:14:32;;;;;;;4.33;3.93;;;;;;;10.10;100.00;96872.25;4921300;29;20202;-85
2024/01/26 04:16:59;;;;;;;4.40;4.00;;;;;;;10.09;100.00;96868.84;4930781;29;20218;-85
2024/01/26 04:19:25;;;;;;;4.07;3.77;;;;;;;10.12;100.00;96878.06;4937616;29;20664;-84
2024/01/26 04:21:52;;;;;;;4.60;4.20;;;;;;;10.13;100.00;96889.97;4939595;29;20210;-84
2024/01/26 04:24:19;;;;;;;4.33;3.93;;;;;;;10.19;100.00;96889.44;4939993;29;20671;-84
2024/01/26 04:26:46;;;;;;;4.93;4.00;;;;;;;10.18;100.00;96891.19;4938920;29;20217;-85
2024/01/26 04:29:12;;;;;;;4.40;4.00;;;;;;;10.21;100.00;96893.47;4940061;29;20212;-84
2024/01/26 04:31:41;;;;;;;4.23;3.83;;;;;;;10.10;100.00;96906.50;4939554;29;21042;-85
2024/01/26 04:34:09;;;;;;;4.83;4.43;;;;;;;10.03;100.00;96915.72;4939636;29;20218;-83
2024/01/26 04:36:36;;;;;;;4.93;4.43;;;;;;;10.03;100.00;96926.84;4936948;29;20226;-85
2024/01/26 04:39:03;;;;;;;7.00;4.53;;;;;;;10.08;100.00;96923.03;4938496;29;20212;-84
2024/01/26 04:41:30;;;;;;;5.10;4.60;;;;;;;10.11;100.00;96915.84;4938415;29;20206;-85
2024/01/26 04:43:57;;;;;;;5.47;4.70;;;;;;;10.08;100.00;96923.03;4938845;29;20205;-84
2024/01/26 04:46:23;;;;;;;5.13;4.67;;;;;;;10.14;100.00;96918.16;4938047;29;20300;-85
2024/01/26 04:48:50;;;;;;;5.33;4.60;;;;;;;10.17;100.00;96907.56;4938854;29;20229;-85
2024/01/26 04:51:17;;;;;;;5.23;4.73;;;;;;;10.14;100.00;96915.56;4937295;29;20213;-85
2024/01/26 04:53:43;;;;;;;5.00;4.60;;;;;;;10.20;100.00;96914.25;4939185;29;20217;-85
2024/01/26 04:56:11;;;;;;;5.33;4.83;;;;;;;10.14;100.00;96917.34;4930608;29;20960;-84
2024/01/26 04:58:39;;;;;;;7.07;5.20;;;;;;;10.08;100.00;96913.56;4929174;29;20218;-85
2024/01/26 05:01:06;;;;;;;5.60;5.00;;;;;;;9.97;100.00;96916.31;4923280;29;20265;-85
2024/01/26 05:03:33;;;;;;;4.93;4.53;;;;;;;10.03;100.00;96921.69;4934056;29;20205;-85
2024/01/26 05:05:59;;;;;;;5.03;4.63;;;;;;;10.01;100.00;96912.47;4918401;29;20245;-85
2024/01/26 05:08:27;;;;;;;6.33;5.13;;;;;;;10.02;100.00;96920.06;4926629;29;20316;-85
2024/01/26 05:10:53;;;;;;;5.40;5.00;;;;;;;9.99;100.00;96922.94;4936462;29;20213;-85
2024/01/26 05:13:19;;;;;;;6.20;4.87;;;;;;;10.01;100.00;96917.63;4936982;29;20209;-85
2024/01/26 05:15:47;;;;;;;5.03;4.63;;;;;;;10.01;100.00;96912.47;4936274;29;20235;-85
2024/01/26 05:18:14;;;;;;;7.63;4.60;;;;;;;10.08;100.00;96908.41;4931321;29;20201;-85
2024/01/26 05:20:41;;;;;;;4.63;4.23;;;;;;;10.09;100.00;96901.50;4930454;29;20194;-85
2024/01/26 05:23:07;;;;;;;4.70;4.30;;;;;;;10.04;100.00;96896.75;4932356;29;20232;-85
2024/01/26 05:25:34;;;;;;;4.93;4.50;;;;;;;9.99;100.00;96891.25;4926394;29;20230;-85
2024/01/26 05:28:03;;;;;;;4.37;3.97;;;;;;;9.92;100.00;96900.47;4926848;29;20236;-88
2024/01/26 05:30:31;;;;;;;5.23;3.83;;;;;;;9.87;100.00;96900.06;4931512;29;20239;-85
2024/01/26 05:33:00;;;;;;;4.20;3.80;;;;;;;9.89;100.00;96898.97;4937455;29;20201;-84
2024/01/26 05:35:27;;;;;;;4.40;4.00;;;;;;;9.86;100.00;96901.84;4936808;29;20222;-84
2024/01/26 05:37:53;;;;;;;3.90;3.60;;;;;;;9.85;100.00;96891.69;4937946;29;20197;-84
2024/01/26 05:40:19;;;;;;;3.77;3.47;;;;;;;9.85;100.00;96894.25;4935276;29;20213;-85
2024/01/26 05:42:46;;;;;;;4.40;3.47;;;;;;;9.82;100.00;96881.66;4936493;29;20217;-84
2024/01/26 05:45:13;;;;;;;3.67;3.37;;;;;;;9.79;100.00;96876.81;4936576;29;20198;-84
2024/01/26 05:47:39;;;;;;;3.37;3.07;;;;;;;9.84;100.00;96884.91;4936925;29;20221;-85
2024/01/26 05:50:08;;;;;;;3.10;2.80;;;;;;;9.78;100.00;96868.28;4935624;29;20284;-84
2024/01/26 05:52:40;;;;;;;2.87;2.63;;;;;;;9.77;100.00;96865.84;4930698;29;21687;-85
2024/01/26 05:55:08;;;;;;;2.90;2.67;;;;;;;9.73;100.00;96867.91;4923038;29;20261;-85
2024/01/26 05:57:34;;;;;;;3.10;2.60;;;;;;;9.79;100.00;96864.78;4930001;29;20241;-84
2024/01/26 06:00:01;;;;;;;2.90;2.60;;;;;;;9.81;100.00;96855.16;4937685;29;20201;-85
2024/01/26 06:02:30;;;;;;;2.60;2.40;;;;;;;9.77;100.00;96840.94;4938093;29;20206;-84
2024/01/26 06:04:57;;;;;;;2.10;2.00;;;;;;;9.70;100.00;96845.03;4938095;29;20209;-85
2024/01/26 06:07:24;;;;;;;2.43;2.00;;;;;;;9.62;100.00;96843.13;4937369;29;20226;-85
2024/01/26 06:09:55;;;;;;;2.67;2.20;;;;;;;9.60;100.00;96846.81;4937675;29;20211;-85
2024/01/26 06:12:21;;;;;;;2.30;2.10;;;;;;;9.60;100.00;96841.69;4937001;29;20206;-84
2024/01/26 06:14:50;;;;;;;2.33;1.93;;;;;;;9.62;100.00;96837.22;4939632;29;20198;-84
2024/01/26 06:17:16;;;;;;;2.33;1.80;;;;;;;9.57;100.00;96827.34;4940511;29;20229;-84
2024/01/26 06:19:43;;;;;;;2.20;2.00;;;;;;;9.59;100.00;96840.06;4940109;29;20197;-84
2024/01/26 06:22:09;;;;;;;2.37;2.07;;;;;;;9.58;100.00;96823.81;4939827;29;20261;-84
2024/01/26 06:24:39;;;;;;;2.13;1.93;;;;;;;9.58;100.00;96816.09;4940340;29;20280;-86
2024/01/26 06:27:05;;;;;;;2.67;1.90;;;;;;;9.72;100.00;96817.41;4940693;29;20308;-84
2024/01/26 06:29:36;;;;;;;2.30;2.10;;;;;;;9.75;100.00;96816.31;4936670;29;20229;-87
2024/01/26 06:32:05;;;;;;;2.80;1.60;;;;;;;9.78;99.47;96803.19;4935731;29;20607;-85
2024/01/26 06:34:34;;;;;;;2.07;1.87;;;;;;;9.75;99.33;96788.03;4936081;29;20644;-85
2024/01/26 06:37:00;;;;;;;2.20;1.73;;;;;;;9.77;98.94;96776.66;4936513;29;20239;-84
2024/01/26 06:39:29;;;;;;;1.77;1.67;;;;;;;9.75;98.42;96764.88;4934932;29;20201;-85
2024/01/26 06:41:56;;;;;;;1.90;1.57;;;;;;;9.57;98.80;96775.09;4935160;29;20577;-85
2024/01/26 06:44:23;;;;;;;1.93;1.77;;;;;;;9.58;99.15;96779.31;4934911;29;20212;-85
2024/01/26 06:46:49;;;;;;;1.70;1.60;;;;;;;9.61;99.16;96779.84;4935867;28;20230;-85
2024/01/26 06:49:16;;;;;;;1.50;1.40;;;;;;;9.62;98.85;96775.50;4937606;29;20245;-85
2024/01/26 06:51:42;;;;;;;1.97;1.57;;;;;;;9.68;99.78;96798.88;4939513;29;20209;-82
2024/01/26 06:54:09;;;;;;;1.50;1.40;;;;;;;9.79;100.00;96797.91;4939752;29;20213;-84
2024/01/26 06:56:35;;;;;;;1.57;1.43;;;;;;;9.85;98.99;96774.16;4928906;29;20225;-82
2024/01/26 06:59:03;;;;;;;2.20;1.80;;;;;;;9.99;98.55;96776.28;4935309;29;20209;-82
2024/01/26 07:01:29;;;;;;;1.93;1.70;;;;;;;10.00;96.94;96747.03;4936339;29;20212;-83
2024/01/26 07:04:00;;;;;;;1.60;1.40;;;;;;;10.03;97.31;96757.00;4937890;29;20212;-85
2024/01/26 07:06:27;;;;;;;1.40;1.30;;;;;;;10.00;96.11;96735.91;4938969;29;20221;-83
2024/01/26 07:08:53;;;;;;;1.40;1.30;;;;;;;10.02;95.74;96727.06;4937932;29;20638;-84
2024/01/26 07:11:20;;;;;;;1.97;1.43;;;;;;;10.05;95.54;96711.34;4936990;29;20667;-82
2024/01/26 07:13:47;;;;;;;1.50;1.40;;;;;;;10.10;95.18;96710.94;4938341;29;20208;-83
2024/01/26 07:16:14;;;;;;;3.27;1.47;;;;;;;10.13;93.98;96699.53;4938253;29;20229;-83
2024/01/26 07:18:41;;;;;;;1.37;1.27;;;;;;;10.12;94.02;96688.44;4936259;29;20283;-83
2024/01/26 07:21:08;;;;;;;1.67;1.40;;;;;;;10.07;93.21;96677.75;4937464;29;20213;-84
2024/01/26 07:23:34;;;;;;;1.63;1.20;;;;;;;10.05;92.15;96657.31;4937086;29;20251;-85
2024/01/26 07:26:03;;;;;;;2.93;2.57;;;;;;;10.07;91.98;96652.03;4936601;29;20217;-85
2024/01/26 07:28:29;;;;;;;3.07;2.17;;;;;;;10.05;91.58;96651.38;4935140;29;20256;-85
2024/01/26 07:31:00;;;;;;;1.50;1.40;;;;;;;10.09;91.61;96646.75;4937338;29;20214;-84
2024/01/26 07:33:28;;;;;;;1.53;1.20;;;;;;;10.09;91.28;96655.28;4933445;29;20197;-85
2024/01/26 07:35:54;;;;;;;1.53;1.30;;;;;;;10.09;90.86;96649.31;4935420;29;20221;-85
2024/01/26 07:38:22;;;;;;;1.60;1.20;;;;;;;10.07;90.87;96643.50;4934774;29;20746;-85
2024/01/26 07:40:50;;;;;;;2.33;1.50;;;;;;;10.10;90.19;96641.44;4934324;29;20672;-85
2024/01/26 07:43:18;;;;;;;1.50;1.20;;;;;;;10.07;90.25;96636.59;4933426;29;20892;-85
2024/01/26 07:45:44;;;;;;;3.07;1.20;;;;;;;10.09;90.16;96636.44;4932298;29;20289;-85
2024/01/26 07:48:12;;;;;;;2.90;1.20;;;;;;;10.13;90.15;96643.72;4934110;29;20244;-84
2024/01/26 07:50:41;;;;;;;1.20;1.10;;;;;;;10.17;89.54;96627.03;4934744;29;20748;-84
2024/01/26 07:53:08;;;;;;;1.83;1.40;;;;;;;10.20;88.71;96608.75;4932550;29;20225;-84
2024/01/26 07:55:35;;;;;;;2.17;1.23;;;;;;;10.21;88.68;96606.97;4934212;29;20222;-85
2024/01/26 07:58:01;;;;;;;1.63;1.00;;;;;;;10.20;88.51;96606.16;4932918;29;20217;-84
2024/01/26 08:00:28;;;;;;;1.83;1.00;;;;;;;10.26;88.08;96600.44;4933131;29;20205;-86
2024/01/26 08:02:54;;;;;;;1.43;1.33;;;;;;;10.17;88.02;96592.78;4934294;29;20208;-85
2024/01/26 08:05:21;;;;;;;4.80;1.47;;;;;;;10.11;87.82;96585.66;4933419;29;20198;-84
2024/01/26 08:07:48;;;;;;;3.23;1.20;;;;;;;10.12;87.45;96582.13;4931174;29;20205;-85
2024/01/26 08:10:15;;;;;;;4.30;1.50;;;;;;;10.18;87.36;96577.19;4935440;29;20276;-85
2024/01/26 08:12:41;;;;;;;1.90;1.00;;;;;;;10.21;86.65;96547.78;4932825;29;20257;-85
2024/01/26 08:15:08;;;;;;;2.30;1.20;;;;;;;10.28;85.77;96531.59;4934709;29;20201;-86
2024/01/26 08:17:36;;;;;;;1.10;1.00;;;;;;;10.32;85.71;96527.75;4932351;29;20209;-85
2024/01/26 08:20:14;;;;;;;;;;;;;;;;;;;;;
2024/01/26 08:22:43;;;;;;;1.00;0.90;;;;;;;10.17;84.42;96490.66;4934045;29;20206;-85
2024/01/26 08:25:11;;;;;;;1.73;1.03;;;;;;;10.25;83.73;96493.28;4934761;29;20235;-85
2024/01/26 08:27:37;;;;;;;1.17;1.07;;;;;;;10.30;83.49;96478.19;4934504;29;20595;-84
2024/01/26 08:30:04;;;;;;;1.30;1.00;;;;;;;10.30;82.96;96464.53;4936041;29;20225;-85
2024/01/26 08:32:31;;;;;;;1.17;0.90;;;;;;;10.28;82.21;96446.66;4933509;29;20201;-85
2024/01/26 08:34:57;;;;;;;1.33;1.00;;;;;;;10.31;82.00;96454.06;4934445;29;20218;-84
2024/01/26 08:37:25;;;;;;;1.13;0.93;;;;;;;10.36;81.55;96438.19;4935431;29;20222;-84
2024/01/26 08:39:52;;;;;;;1.00;0.87;;;;;;;10.41;80.62;96414.53;4934093;29;20249;-85
2024/01/26 08:42:22;;;;;;;1.00;0.90;;;;;;;10.50;80.36;96398.97;4934204;29;20213;-84
2024/01/26 08:44:49;;;;;;;0.80;0.80;;;;;;;10.46;79.77;96378.84;4934098;29;20256;-85
2024/01/26 08:47:15;;;;;;;0.90;0.90;;;;;;;10.46;79.50;96366.75;4935180;29;20709;-85
2024/01/26 08:49:45;;;;;;;1.47;0.73;;;;;;;10.48;79.14;96356.31;4933323;29;20225;-84
2024/01/26 08:52:12;;;;;;;1.20;0.97;;;;;;;10.60;79.16;96379.03;4935454;29;20675;-85
2024/01/26 08:54:38;;;;;;;0.90;0.90;;;;;;;10.53;78.46;96347.16;4934635;29;20691;-84
2024/01/26 08:57:05;;;;;;;0.90;0.90;;;;;;;10.55;78.12;96342.66;4934450;29;20233;-85
2024/01/26 08:59:33;;;;;;;1.43;0.90;;;;;;;10.61;78.15;96333.47;4934641;29;20687;-85
2024/01/26 09:02:01;;;;;;;0.80;0.80;;;;;;;10.57;77.10;96315.00;4935054;29;20205;-84
2024/01/26 09:04:27;;;;;;;2.43;0.80;;;;;;;10.56;77.17;96310.81;4931537;29;20233;-85
2024/01/26 09:06:56;;;;;;;0.77;0.77;;;;;;;10.66;76.86;96292.63;4932322;29;20659;-85
2024/01/26 09:09:22;;;;;;;0.80;0.80;;;;;;;10.67;76.25;96289.06;4935492;29;20221;-85
2024/01/26 09:11:50;;;;;;;0.80;0.80;;;;;;;10.78;75.95;96280.22;4936081;29;20285;-85
2024/01/26 09:14:16;;;;;;;0.80;0.80;;;;;;;10.88;75.63;96276.53;4934059;29;20556;-85
2024/01/26 09:16:44;;;;;;;1.10;0.87;;;;;;;10.95;75.21;96259.47;4932878;29;20254;-85
2024/01/26 09:19:13;;;;;;;1.30;0.90;;;;;;;10.97;74.85;96239.47;4933940;29;20332;-85
2024/01/26 09:21:40;;;;;;;1.07;0.90;;;;;;;11.06;74.90;96241.09;4933367;29;20210;-85
2024/01/26 09:24:07;;;;;;;0.80;0.80;;;;;;;11.11;74.40;96220.00;4935137;29;20209;-85
2024/01/26 09:26:34;;;;;;;0.90;0.80;;;;;;;11.10;73.80;96207.28;4922795;29;20276;-84
2024/01/26 09:29:01;;;;;;;0.80;0.80;;;;;;;11.12;73.35;96200.97;4935043;29;20311;-84
2024/01/26 09:31:28;;;;;;;2.13;1.87;;;;;;;11.18;73.60;96202.09;4934356;29;20198;-85
2024/01/26 09:33:56;;;;;;;0.90;0.90;;;;;;;11.23;73.38;96197.25;4938131;29;20209;-85
2024/01/26 09:36:23;;;;;;;0.70;0.70;;;;;;;11.13;72.80;96163.94;4939559;29;20316;-86
2024/01/26 09:38:50;;;;;;;0.80;0.80;;;;;;;11.17;72.79;96169.53;4936473;29;20224;-87
2024/01/26 09:41:17;;;;;;;1.37;1.10;;;;;;;11.31;72.60;96164.53;4937618;29;20615;-85
2024/01/26 09:43:44;;;;;;;0.80;0.80;;;;;;;11.39;72.42;96161.09;4937375;29;20217;-84
2024/01/26 09:46:15;;;;;;;0.80;0.80;;;;;;;11.56;71.94;96136.03;4936510;29;20229;-84
2024/01/26 09:48:44;;;;;;;0.73;0.60;;;;;;;11.59;70.42;96091.84;4936429;29;20205;-85
2024/01/26 09:51:16;;;;;;;0.80;0.80;;;;;;;11.49;70.54;96080.97;4936775;29;20213;-85
2024/01/26 09:53:43;;;;;;;1.43;0.90;;;;;;;11.53;71.46;96118.34;4932867;29;20229;-85
2024/01/26 09:56:10;;;;;;;0.70;0.70;;;;;;;11.53;71.34;96113.19;4925301;29;20315;-84
2024/01/26 09:58:37;;;;;;;1.30;0.80;;;;;;;11.58;70.94;96110.88;4932920;29;20213;-85
2024/01/26 10:01:05;;;;;;;1.27;0.80;;;;;;;11.64;71.13;96131.66;4936665;29;20201;-85
2024/01/26 10:03:32;;;;;;;0.93;0.70;;;;;;;11.58;70.76;96109.09;4944672;29;20717;-84
2024/01/26 10:05:59;;;;;;;0.80;0.80;;;;;;;11.63;70.54;96108.59;4947055;29;20226;-84
2024/01/26 10:08:38;;;;;;;0.70;0.70;;;;;;;11.67;70.30;96096.97;4938184;29;20212;-84
2024/01/26 10:11:04;;;;;;;0.87;0.77;;;;;;;11.76;70.59;96099.34;4932585;29;20216;-84
2024/01/26 10:13:36;;;;;;;0.73;0.70;;;;;;;12.05;69.66;96072.06;4938418;29;20208;-85
2024/01/26 10:16:07;;;;;;;0.90;0.70;;;;;;;12.07;68.90;96029.63;4939570;29;20229;-84
2024/01/26 10:18:43;;;;;;;1.67;0.77;;;;;;;12.13;68.48;96022.16;4940134;29;20707;-85
2024/01/26 10:21:13;;;;;;;1.33;0.90;;;;;;;12.25;68.30;96002.69;4938943;29;20201;-85
2024/01/26 10:23:42;;;;;;;1.50;0.80;;;;;;;12.54;67.76;95984.63;4938609;29;20596;-85
2024/01/26 10:26:10;;;;;;;1.77;1.03;;;;;;;12.60;67.02;95946.94;4935470;29;20244;-84
2024/01/26 10:28:36;;;;;;;0.87;0.70;;;;;;;12.65;66.47;95917.03;4937525;29;20224;-85
2024/01/26 10:31:03;;;;;;;0.60;0.60;;;;;;;12.79;66.46;95910.22;4937398;29;20222;-84
2024/01/26 10:33:33;;;;;;;0.80;0.80;;;;;;;12.89;66.00;95886.69;4925260;29;20202;-85
2024/01/26 10:38:32;;;;;;;0.70;0.70;;;;;;;12.53;66.69;95889.22;4974931;28;20423;-84
2024/01/26 10:41:02;;;;;;;1.60;0.80;;;;;;;12.50;67.42;95913.66;4967129;28;20618;-83
2024/01/26 10:43:29;;;;;;;1.03;0.93;;;;;;;12.60;67.33;95931.44;4976358;28;20220;-83
2024/01/26 10:45:56;;;;;;;1.00;0.87;;;;;;;12.47;66.96;95889.97;4967924;28;20307;-86
2024/01/26 10:48:27;;;;;;;0.80;0.80;;;;;;;12.50;67.18;95903.34;4975660;28;20303;-84
2024/01/26 10:50:53;;;;;;;1.10;0.70;;;;;;;12.57;67.51;95896.44;4976916;28;20228;-84
2024/01/26 10:53:21;;;;;;;1.20;0.80;;;;;;;12.53;67.10;95881.47;4975889;28;20196;-85
2024/01/26 10:55:54;;;;;;;0.80;0.80;;;;;;;12.48;67.14;95858.81;4975537;28;20235;-86
2024/01/26 10:58:21;;;;;;;0.80;0.80;;;;;;;12.42;67.45;95873.22;4974499;28;20208;-85
2024/01/26 11:00:54;;;;;;;0.83;0.83;;;;;;;12.40;67.29;95862.28;4975908;28;20196;-86
2024/01/26 11:03:21;;;;;;;0.90;0.90;;;;;;;12.48;67.35;95876.06;4975668;28;20235;-85
2024/01/26 11:05:50;;;;;;;1.10;0.90;;;;;;;12.42;67.00;95854.34;4975275;28;20219;-85
2024/01/26 11:08:22;;;;;;;2.00;1.03;;;;;;;12.48;66.89;95858.00;4975509;28;20200;-86
2024/01/26 11:10:50;;;;;;;1.43;0.80;;;;;;;12.48;66.92;95835.56;4971459;28;20251;-85
2024/01/26 11:13:17;;;;;;;0.80;0.80;;;;;;;12.47;66.86;95828.00;4957808;28;20264;-85
2024/01/26 11:15:47;;;;;;;2.70;1.10;;;;;;;12.47;66.50;95815.06;4969645;28;20228;-85
2024/01/26 11:18:23;;;;;;;1.60;0.80;;;;;;;12.38;66.61;95806.63;4965676;28;20205;-85
2024/01/26 11:21:01;;;;;;;2.27;0.90;;;;;;;12.45;66.75;95815.25;4971938;28;20199;-84
2024/01/26 11:23:50;;;;;;;1.53;0.80;;;;;;;12.58;66.40;95791.34;4964758;28;20197;-85
2024/01/26 11:26:27;;;;;;;1.50;1.00;;;;;;;12.72;66.31;95795.66;4969844;28;20339;-86
2024/01/26 11:28:59;;;;;;;2.07;1.27;;;;;;;12.77;65.61;95770.06;4960384;28;20752;-84
2024/01/26 11:31:34;;;;;;;1.97;0.83;;;;;;;12.75;65.66;95748.78;4970547;28;20243;-86
2024/01/26 11:34:02;;;;;;;1.00;0.90;;;;;;;12.77;65.62;95745.03;4969204;28;20210;-85
2024/01/26 11:36:34;;;;;;;3.20;0.93;;;;;;;12.75;65.62;95741.03;4974527;28;20288;-85